Stryker, Montana
Current Conditions -  °F | °C
As of 11:55 AM on Wednesday 26 Nov 2014 (Local Time) from KGPI Reporting Station
Moderate Snow Moderate Snow  
Wind Chill: 32°   Ceiling: 1100
Heat Index: 32°   Visibility: 0.5mi
Dew Point: 31°   Wind: 0mph
Humidity: 96%   Direction: NA
Pressure: 30.15"   Gusts: NA
Location:  48.67°N, 114.78°W
Report Text: KGPI 261855Z 00000KT 1/2SM SN FG VV011 00/M01 A3015 RMK AO2 SLP235 P0007 T00001006
Loading
Personal Weather Stations






























Interactive Weather Map New forecast layout! Learn more

10-Day Weather Forecast

Advertisements
Track Severe Weather on mobile